createdAt,value
2023-03-02T00:01:17.193Z,70.92
2023-03-02T00:04:21.620Z,70.61
2023-03-02T00:07:24.524Z,70.49
2023-03-02T00:10:26.416Z,71.03
2023-03-02T00:13:30.797Z,70.72
2023-03-02T00:16:32.795Z,71.00
2023-03-02T00:19:34.548Z,70.94
2023-03-02T00:22:36.435Z,70.45
2023-03-02T00:25:38.030Z,70.80
2023-03-02T00:28:41.152Z,70.63
2023-03-02T00:31:42.895Z,70.43
2023-03-02T00:34:44.453Z,70.71
2023-03-02T00:37:46.129Z,70.78
2023-03-02T00:40:49.501Z,70.36
2023-03-02T00:43:52.334Z,70.02
2023-03-02T00:46:54.084Z,70.27
2023-03-02T00:49:56.296Z,70.14
2023-03-02T00:52:58.078Z,70.22
2023-03-02T00:55:59.787Z,70.07
2023-03-02T00:59:05.783Z,69.92
2023-03-02T01:02:08.614Z,69.85
2023-03-02T01:05:10.326Z,69.50
2023-03-02T01:08:12.243Z,69.58
2023-03-02T01:11:14.735Z,69.45
2023-03-02T01:14:17.932Z,70.03
2023-03-02T01:17:22.044Z,69.58
2023-03-02T01:20:23.635Z,69.69
2023-03-02T01:23:25.109Z,69.57
2023-03-02T01:26:26.733Z,69.54
2023-03-02T01:29:29.825Z,69.89
2023-03-02T01:32:31.446Z,70.76
2023-03-02T01:35:33.061Z,70.54
2023-03-02T01:38:34.824Z,70.92
2023-03-02T01:41:36.473Z,70.63
2023-03-02T01:44:41.695Z,70.17
2023-03-02T01:47:43.278Z,70.29
2023-03-02T01:50:50.022Z,71.05
2023-03-02T01:53:54.615Z,71.04
2023-03-02T01:56:59.998Z,70.90
2023-03-02T02:00:10.545Z,70.57
2023-03-02T02:03:20.855Z,70.47
2023-03-02T02:06:25.238Z,70.72
2023-03-02T02:09:28.183Z,70.56
2023-03-02T02:12:30.243Z,71.16
2023-03-02T02:15:33.292Z,71.12
2023-03-02T02:18:36.664Z,70.75
2023-03-02T02:21:38.322Z,71.02
2023-03-02T02:24:43.003Z,70.72
2023-03-02T02:27:46.670Z,71.01
2023-03-02T02:30:50.575Z,71.08
2023-03-02T02:33:55.343Z,70.64
2023-03-02T02:37:00.814Z,70.36
2023-03-02T02:40:07.445Z,70.64
2023-03-02T02:43:12.648Z,71.20
2023-03-02T02:46:14.312Z,71.12
2023-03-02T02:49:21.396Z,71.45
2023-03-02T02:52:24.972Z,71.68
2023-03-02T02:55:26.750Z,72.21
2023-03-02T02:58:31.760Z,72.51
2023-03-02T03:01:33.779Z,72.15
2023-03-02T03:04:36.280Z,72.25
2023-03-02T03:07:37.888Z,72.43
2023-03-02T03:10:41.332Z,72.23
2023-03-02T03:13:46.822Z,72.00
2023-03-02T03:16:49.588Z,71.83
2023-03-02T03:19:51.570Z,72.08
2023-03-02T03:22:53.734Z,71.79
2023-03-02T03:25:56.394Z,71.87
2023-03-02T03:28:59.834Z,71.58
2023-03-02T03:32:03.198Z,71.93
2023-03-02T03:35:08.803Z,71.75
2023-03-02T03:38:10.878Z,72.46
2023-03-02T03:41:13.016Z,72.42
2023-03-02T03:44:16.019Z,72.59
2023-03-02T03:47:19.437Z,72.85
2023-03-02T03:50:21.697Z,72.72
2023-03-02T03:53:23.432Z,73.37
2023-03-02T03:56:25.109Z,73.04
2023-03-02T03:59:28.114Z,73.37
2023-03-02T04:02:36.263Z,73.46
2023-03-02T04:05:38.042Z,73.66
2023-03-02T04:08:40.085Z,73.71
2023-03-02T04:11:42.982Z,73.83
2023-03-02T04:14:46.618Z,73.66
2023-03-02T04:17:48.266Z,73.92
2023-03-02T04:20:52.313Z,74.10
2023-03-02T04:23:54.332Z,74.01
2023-03-02T04:26:57.338Z,74.05
2023-03-02T04:30:00.658Z,74.01
2023-03-02T04:33:03.668Z,74.08
2023-03-02T04:36:07.119Z,73.94
2023-03-02T04:39:09.353Z,73.64
2023-03-02T04:42:10.952Z,73.87
2023-03-02T04:45:14.384Z,73.80
2023-03-02T04:48:16.061Z,73.83
2023-03-02T04:51:19.324Z,74.04
2023-03-02T04:54:22.305Z,73.76
2023-03-02T04:57:23.822Z,74.23
2023-03-02T05:00:28.944Z,74.35
2023-03-02T05:03:30.573Z,74.28
2023-03-02T05:06:32.460Z,74.18
2023-03-02T05:09:34.120Z,74.51
2023-03-02T05:12:54.463Z,74.41
2023-03-02T05:15:58.490Z,74.97
2023-03-02T05:19:00.783Z,74.80
2023-03-02T05:22:02.418Z,74.86
2023-03-02T05:25:04.609Z,75.18
2023-03-02T05:28:06.396Z,75.42
2023-03-02T05:31:10.536Z,75.90
2023-03-02T05:34:13.715Z,76.29
2023-03-02T05:37:15.285Z,76.36
2023-03-02T05:40:18.554Z,76.49
2023-03-02T05:43:21.651Z,76.53
2023-03-02T05:46:24.586Z,77.07
2023-03-02T05:49:26.290Z,76.96
2023-03-02T05:52:27.894Z,77.29
2023-03-02T05:55:29.667Z,77.77
2023-03-02T05:58:31.373Z,77.58
2023-03-02T06:01:35.697Z,77.56
2023-03-02T06:04:42.972Z,77.77
2023-03-02T06:07:44.622Z,78.19
2023-03-02T06:10:46.187Z,77.99
2023-03-02T06:13:48.000Z,77.97
2023-03-02T06:16:50.994Z,78.41
2023-03-02T06:19:52.784Z,78.67
2023-03-02T06:22:54.397Z,79.03
2023-03-02T06:25:56.366Z,79.52
2023-03-02T06:28:58.834Z,79.41
2023-03-02T06:32:01.974Z,79.35
2023-03-02T06:35:04.454Z,79.78
2023-03-02T06:38:06.228Z,79.61
2023-03-02T06:41:08.072Z,79.64
2023-03-02T06:44:09.785Z,80.05
2023-03-02T06:47:12.677Z,80.42
2023-03-02T06:50:14.471Z,80.09
2023-03-02T06:53:18.441Z,80.29
2023-03-02T06:56:20.245Z,79.49
2023-03-02T06:59:21.763Z,79.72
2023-03-02T07:02:24.877Z,79.58
2023-03-02T07:05:26.744Z,79.93
2023-03-02T07:08:28.873Z,79.69
2023-03-02T07:11:30.756Z,79.53
2023-03-02T07:14:35.196Z,79.92
2023-03-02T07:17:38.762Z,79.65
2023-03-02T07:20:40.280Z,79.31
2023-03-02T07:23:41.782Z,79.64
2023-03-02T07:26:43.411Z,79.37
2023-03-02T07:29:44.894Z,79.31
2023-03-02T07:32:48.957Z,78.84
2023-03-02T07:35:50.661Z,78.70
2023-03-02T07:38:54.565Z,79.49
2023-03-02T07:41:57.589Z,79.15
2023-03-02T07:44:59.250Z,79.08
2023-03-02T07:48:02.187Z,79.40
2023-03-02T07:51:04.660Z,79.85
2023-03-02T07:54:06.213Z,79.98
2023-03-02T07:57:07.871Z,79.62
2023-03-02T08:00:10.196Z,80.00
2023-03-02T08:03:16.257Z,79.35
2023-03-02T08:06:18.054Z,79.56
2023-03-02T08:09:19.625Z,79.88
2023-03-02T08:12:21.242Z,79.80
2023-03-02T08:15:23.456Z,79.47
2023-03-02T08:18:26.374Z,80.42
2023-03-02T08:21:29.186Z,80.59
2023-03-02T08:24:30.772Z,80.37
2023-03-02T08:27:32.450Z,80.62
2023-03-02T08:30:34.422Z,79.84
2023-03-02T08:33:37.805Z,79.65
2023-03-02T08:36:39.317Z,79.73
2023-03-02T08:39:40.841Z,79.32
2023-03-02T08:42:42.328Z,79.83
2023-03-02T08:45:55.321Z,79.70
2023-03-02T08:48:56.952Z,78.67
2023-03-02T08:51:58.815Z,78.57
2023-03-02T08:55:02.605Z,77.93
2023-03-02T08:58:05.215Z,78.33
2023-03-02T09:01:12.922Z,78.35
2023-03-02T09:04:14.537Z,77.80
2023-03-02T09:07:19.122Z,77.05
2023-03-02T09:10:20.796Z,77.17
2023-03-02T09:13:22.293Z,77.37
2023-03-02T09:16:25.888Z,76.52
2023-03-02T09:19:27.476Z,76.91
2023-03-02T09:22:30.205Z,76.63
2023-03-02T09:25:31.806Z,76.55
2023-03-02T09:28:33.921Z,76.64
2023-03-02T09:31:37.641Z,75.15
2023-03-02T09:34:39.561Z,75.82
2023-03-02T09:37:42.773Z,74.99
2023-03-02T09:40:58.627Z,75.07
2023-03-02T09:44:06.856Z,75.01
2023-03-02T09:47:16.546Z,74.05
2023-03-02T09:50:30.429Z,74.86
2023-03-02T09:53:36.982Z,74.45
2023-03-02T09:56:42.386Z,74.13
2023-03-02T09:59:47.295Z,74.74
2023-03-02T10:02:52.917Z,75.41
2023-03-02T10:05:55.087Z,74.50
2023-03-02T10:08:57.071Z,74.18
2023-03-02T10:12:04.451Z,74.05
2023-03-02T10:15:10.328Z,74.78
2023-03-02T10:18:21.419Z,74.83
2023-03-02T10:21:26.475Z,74.44
2023-03-02T10:24:31.066Z,75.39
2023-03-02T10:27:36.624Z,74.98
2023-03-02T10:30:41.471Z,74.05
2023-03-02T10:33:44.544Z,74.26
2023-03-02T10:36:47.706Z,75.28
2023-03-02T10:39:49.468Z,74.75
2023-03-02T10:42:51.752Z,74.63
2023-03-02T10:46:00.408Z,75.25
2023-03-02T10:49:03.688Z,76.30
2023-03-02T10:52:06.232Z,75.27
2023-03-02T10:55:13.276Z,74.76
2023-03-02T10:58:22.899Z,76.26
2023-03-02T11:01:24.600Z,76.12
2023-03-02T11:04:27.556Z,75.71
2023-03-02T11:07:29.615Z,74.49
2023-03-02T11:10:32.386Z,75.99
2023-03-02T11:13:35.606Z,74.65
2023-03-02T11:16:37.414Z,74.81
2023-03-02T11:19:41.130Z,73.98
2023-03-02T11:22:47.327Z,74.90
2023-03-02T11:25:52.075Z,74.79
2023-03-02T11:28:58.310Z,74.77
2023-03-02T11:32:06.676Z,73.71
2023-03-02T11:35:12.398Z,75.70
2023-03-02T11:38:17.221Z,74.55
2023-03-02T11:41:27.393Z,75.59
2023-03-02T11:44:29.791Z,73.09
2023-03-02T11:47:32.439Z,73.93
2023-03-02T11:50:37.652Z,73.64
2023-03-02T11:53:41.542Z,72.81
2023-03-02T11:56:43.578Z,73.12
2023-03-02T11:59:45.378Z,72.78
2023-03-02T12:02:57.470Z,73.57
2023-03-02T12:06:03.900Z,72.48
2023-03-02T12:09:09.761Z,72.77
2023-03-02T12:12:29.519Z,72.20
2023-03-02T12:15:37.271Z,73.48
2023-03-02T12:18:43.822Z,73.11
2023-03-02T12:21:57.417Z,71.41
2023-03-02T12:25:00.746Z,71.66
2023-03-02T12:28:03.842Z,71.57
2023-03-02T12:31:07.271Z,71.54
2023-03-02T12:34:27.873Z,70.90
2023-03-02T12:37:32.423Z,71.36
2023-03-02T12:40:40.703Z,71.78
2023-03-02T12:43:44.113Z,71.09
2023-03-02T12:46:46.610Z,71.07
2023-03-02T12:49:51.300Z,71.43
2023-03-02T12:52:59.282Z,71.74
2023-03-02T12:56:00.940Z,70.83
2023-03-02T12:59:02.871Z,69.88
2023-03-02T13:02:13.813Z,70.21
2023-03-02T13:05:18.110Z,70.63
2023-03-02T13:08:24.330Z,70.28
2023-03-02T13:14:50.060Z,69.39
2023-03-02T13:17:56.136Z,69.39
2023-03-02T13:20:59.200Z,69.50
2023-03-02T13:24:02.564Z,69.21
2023-03-02T13:27:05.771Z,69.04
2023-03-02T13:30:11.750Z,69.47
2023-03-02T13:33:19.921Z,69.00
2023-03-02T13:36:22.694Z,69.04
2023-03-02T13:39:27.208Z,69.25
2023-03-02T13:42:34.075Z,68.90
2023-03-02T13:45:35.937Z,68.64
2023-03-02T13:48:37.439Z,68.80
2023-03-02T13:51:40.040Z,69.28
2023-03-02T13:54:44.290Z,68.85
2023-03-02T13:57:46.199Z,69.25
2023-03-02T14:00:48.062Z,69.01
2023-03-02T14:03:49.603Z,68.71
2023-03-02T14:06:51.611Z,69.17
2023-03-02T14:09:56.576Z,69.29
2023-03-02T14:13:02.091Z,69.48
2023-03-02T14:16:04.018Z,70.01
2023-03-02T14:19:05.730Z,71.01
2023-03-02T14:22:10.059Z,71.82
2023-03-02T14:25:13.485Z,71.85
2023-03-02T14:28:20.083Z,72.34
2023-03-02T14:31:24.090Z,72.79
2023-03-02T14:34:26.242Z,73.33
2023-03-02T14:37:28.786Z,72.88
2023-03-02T14:40:31.695Z,73.23
2023-03-02T14:43:33.379Z,72.88
2023-03-02T14:46:34.905Z,74.03
2023-03-02T14:49:36.774Z,74.35
2023-03-02T14:52:40.300Z,74.98
2023-03-02T14:55:43.789Z,75.40
2023-03-02T14:58:45.663Z,76.00
2023-03-02T15:01:47.284Z,76.51
2023-03-02T15:04:53.301Z,75.67
2023-03-02T15:07:58.687Z,75.59
2023-03-02T15:11:01.758Z,75.52
2023-03-02T15:14:03.270Z,75.30
2023-03-02T15:17:05.013Z,76.18
2023-03-02T15:20:07.436Z,75.91
2023-03-02T15:23:09.718Z,75.84
2023-03-02T15:26:13.326Z,75.66
2023-03-02T15:29:15.065Z,76.36
2023-03-02T15:32:17.020Z,76.30
2023-03-02T15:35:18.834Z,76.74
2023-03-02T15:38:20.671Z,77.95
2023-03-02T15:41:23.792Z,77.37
2023-03-02T15:44:25.518Z,78.12
2023-03-02T15:47:27.103Z,78.53
2023-03-02T15:50:28.648Z,79.07
2023-03-02T15:53:30.733Z,79.93
2023-03-02T15:56:43.808Z,79.96
2023-03-02T15:59:46.303Z,80.27
2023-03-02T16:02:48.438Z,80.29
2023-03-02T16:05:49.992Z,81.24
2023-03-02T16:08:51.553Z,81.88
2023-03-02T16:11:54.426Z,81.98
2023-03-02T16:14:56.032Z,82.82
2023-03-02T16:17:57.595Z,83.42
2023-03-02T16:21:01.925Z,83.48
2023-03-02T16:24:04.699Z,83.73
2023-03-02T16:27:07.576Z,83.44
2023-03-02T16:30:09.855Z,84.06
2023-03-02T16:33:12.778Z,84.53
2023-03-02T16:36:14.638Z,85.74
2023-03-02T16:39:16.441Z,85.58
2023-03-02T16:42:21.251Z,85.87
2023-03-02T16:45:23.437Z,86.19
2023-03-02T16:48:24.993Z,86.88
2023-03-02T16:51:26.913Z,86.97
2023-03-02T16:54:28.971Z,87.51
2023-03-02T16:57:31.939Z,88.47
2023-03-02T17:00:34.177Z,89.13
2023-03-02T17:03:35.866Z,89.26
2023-03-02T17:06:38.891Z,89.30
2023-03-02T17:09:41.484Z,89.83
2023-03-02T17:12:44.382Z,89.10
2023-03-02T17:15:46.290Z,89.38
2023-03-02T17:18:47.972Z,89.93
2023-03-02T17:21:49.510Z,90.72
2023-03-02T17:24:51.289Z,91.22
2023-03-02T17:27:54.260Z,93.13
2023-03-02T17:30:55.828Z,92.46
2023-03-02T17:33:57.815Z,93.87
2023-03-02T17:37:02.616Z,94.04
2023-03-02T17:40:04.755Z,94.37
2023-03-02T17:43:08.387Z,95.19
2023-03-02T17:46:14.527Z,96.17
2023-03-02T17:49:16.205Z,95.57
2023-03-02T17:52:18.536Z,95.15
2023-03-02T17:55:20.853Z,96.08
2023-03-02T17:58:25.252Z,96.93
2023-03-02T18:01:29.900Z,96.90
2023-03-02T18:04:31.619Z,98.56
2023-03-02T18:07:33.263Z,99.15
2023-03-02T18:10:34.803Z,98.74
2023-03-02T18:13:37.790Z,98.66
2023-03-02T18:16:39.335Z,99.77
2023-03-02T18:19:41.056Z,99.34
2023-03-02T18:22:42.680Z,100.00
2023-03-02T18:25:45.407Z,100.00
2023-03-02T18:28:48.293Z,100.00
2023-03-02T18:31:50.280Z,100.00
2023-03-02T18:34:51.898Z,100.00
2023-03-02T18:37:53.682Z,100.00
2023-03-02T18:40:59.767Z,100.00
2023-03-02T18:44:03.939Z,100.00
2023-03-02T18:47:07.511Z,100.00
2023-03-02T18:50:11.072Z,100.00
2023-03-02T18:53:13.094Z,100.00
2023-03-02T18:56:15.415Z,100.00
2023-03-02T18:59:18.813Z,100.00
2023-03-02T19:02:20.495Z,100.00
2023-03-02T19:05:22.910Z,100.00
2023-03-02T19:08:25.074Z,100.00
2023-03-02T19:11:26.694Z,100.00
2023-03-02T19:14:29.753Z,100.00
2023-03-02T19:17:31.298Z,100.00
2023-03-02T19:20:32.980Z,100.00
2023-03-02T19:23:34.848Z,100.00
2023-03-02T19:26:36.734Z,100.00
2023-03-02T19:29:40.343Z,100.00
2023-03-02T19:32:41.956Z,100.00
2023-03-02T19:35:44.026Z,100.00
2023-03-02T19:38:45.828Z,100.00
2023-03-02T19:41:47.543Z,100.00
2023-03-02T19:44:50.684Z,100.00
2023-03-02T19:47:52.479Z,100.00
2023-03-02T19:50:54.208Z,100.00
2023-03-02T19:53:57.619Z,100.00
2023-03-02T19:56:59.477Z,100.00
2023-03-02T20:00:06.036Z,100.00
2023-03-02T20:03:08.655Z,100.00
2023-03-02T20:06:10.421Z,100.00
2023-03-02T20:09:14.524Z,100.00
2023-03-02T20:12:16.250Z,100.00
2023-03-02T20:15:19.434Z,100.00
2023-03-02T20:18:21.033Z,100.00
2023-03-02T20:21:25.865Z,100.00
2023-03-02T20:24:27.546Z,100.00
2023-03-02T20:27:29.194Z,100.00
2023-03-02T20:30:34.853Z,100.00
2023-03-02T20:33:37.948Z,100.00
2023-03-02T20:36:39.727Z,100.00
2023-03-02T20:39:42.209Z,100.00
2023-03-02T20:42:44.708Z,100.00
2023-03-02T20:45:49.216Z,100.00
2023-03-02T20:48:51.350Z,100.00
2023-03-02T20:51:54.910Z,100.00
2023-03-02T20:54:57.018Z,100.00
2023-03-02T20:57:58.855Z,100.00
2023-03-02T21:01:02.549Z,100.00
2023-03-02T21:04:06.271Z,100.00
2023-03-02T21:07:08.717Z,100.00
2023-03-02T21:10:11.514Z,100.00
2023-03-02T21:13:13.280Z,100.00
2023-03-02T21:16:18.590Z,100.00
2023-03-02T21:19:23.812Z,100.00
2023-03-02T21:22:25.586Z,100.00
2023-03-02T21:25:27.761Z,100.00
2023-03-02T21:28:29.387Z,100.00
2023-03-02T21:31:32.741Z,100.00
2023-03-02T21:34:36.582Z,100.00
2023-03-02T21:37:40.349Z,100.00
2023-03-02T21:40:45.926Z,100.00
2023-03-02T21:43:48.131Z,100.00
2023-03-02T21:46:51.361Z,100.00
2023-03-02T21:49:54.257Z,100.00
2023-03-02T21:52:58.562Z,100.00
2023-03-02T21:56:01.809Z,100.00
2023-03-02T21:59:04.138Z,100.00
2023-03-02T22:02:07.657Z,100.00
2023-03-02T22:05:09.663Z,100.00
2023-03-02T22:08:13.579Z,100.00
2023-03-02T22:11:19.485Z,100.00
2023-03-02T22:14:21.054Z,100.00
2023-03-02T22:17:24.874Z,100.00
2023-03-02T22:20:26.846Z,100.00
2023-03-02T22:23:28.536Z,100.00
2023-03-02T22:26:30.598Z,100.00
2023-03-02T22:29:35.656Z,100.00
2023-03-02T22:32:38.741Z,100.00
2023-03-02T22:35:42.475Z,100.00
2023-03-02T22:38:44.174Z,100.00
2023-03-02T22:41:45.969Z,100.00
2023-03-02T22:44:50.435Z,100.00
2023-03-02T22:47:54.102Z,100.00
2023-03-02T22:50:55.878Z,100.00
2023-03-02T22:53:58.566Z,100.00
2023-03-02T22:57:00.111Z,100.00
2023-03-02T23:00:20.301Z,100.00
2023-03-02T23:03:32.065Z,100.00
2023-03-02T23:06:38.196Z,100.00
2023-03-02T23:09:39.737Z,100.00
2023-03-02T23:12:41.961Z,100.00
2023-03-02T23:15:43.688Z,100.00
2023-03-02T23:18:48.181Z,100.00
2023-03-02T23:25:10.692Z,100.00
2023-03-02T23:28:12.577Z,100.00
2023-03-02T23:31:14.361Z,100.00
2023-03-02T23:34:17.376Z,100.00
2023-03-02T23:37:19.289Z,100.00
2023-03-02T23:40:21.755Z,100.00
2023-03-02T23:43:23.506Z,100.00
2023-03-02T23:46:25.707Z,100.00
2023-03-02T23:49:29.084Z,100.00
2023-03-02T23:52:30.633Z,100.00
2023-03-02T23:55:33.147Z,100.00
2023-03-02T23:58:34.912Z,100.00
